sensor_id;sensor_type;location;lat;lon;timestamp;temperature;humidity
37050;DHT22;22958;51.232;6.826;2023-04-25T00:01:11;7.20;99.90
37050;DHT22;22958;51.232;6.826;2023-04-25T00:03:38;7.20;99.90
37050;DHT22;22958;51.232;6.826;2023-04-25T00:06:04;7.20;99.90
37050;DHT22;22958;51.232;6.826;2023-04-25T00:08:30;7.30;99.90
37050;DHT22;22958;51.232;6.826;2023-04-25T00:10:56;7.40;99.90
37050;DHT22;22958;51.232;6.826;2023-04-25T00:13:22;7.40;99.90
37050;DHT22;22958;51.232;6.826;2023-04-25T00:15:48;7.40;99.90
37050;DHT22;22958;51.232;6.826;2023-04-25T00:18:14;7.40;99.90
37050;DHT22;22958;51.232;6.826;2023-04-25T00:20:40;7.40;99.90
37050;DHT22;22958;51.232;6.826;2023-04-25T00:23:05;7.40;99.90
37050;DHT22;22958;51.232;6.826;2023-04-25T00:25:31;7.40;99.90
37050;DHT22;22958;51.232;6.826;2023-04-25T00:27:57;7.50;99.90
37050;DHT22;22958;51.232;6.826;2023-04-25T00:30:22;7.50;99.90
37050;DHT22;22958;51.232;6.826;2023-04-25T00:32:48;7.50;99.90
37050;DHT22;22958;51.232;6.826;2023-04-25T00:35:14;7.50;99.90
37050;DHT22;22958;51.232;6.826;2023-04-25T00:37:39;7.60;99.90
37050;DHT22;22958;51.232;6.826;2023-04-25T00:40:06;7.60;99.90
37050;DHT22;22958;51.232;6.826;2023-04-25T00:42:31;7.60;99.90
37050;DHT22;22958;51.232;6.826;2023-04-25T00:44:58;7.50;99.90
37050;DHT22;22958;51.232;6.826;2023-04-25T00:47:24;7.50;99.90
37050;DHT22;22958;51.232;6.826;2023-04-25T00:49:50;7.50;99.90
37050;DHT22;22958;51.232;6.826;2023-04-25T00:52:15;7.50;99.90
37050;DHT22;22958;51.232;6.826;2023-04-25T00:54:41;7.50;99.90
37050;DHT22;22958;51.232;6.826;2023-04-25T00:57:07;7.50;99.90
37050;DHT22;22958;51.232;6.826;2023-04-25T00:59:33;7.50;99.90
37050;DHT22;22958;51.232;6.826;2023-04-25T01:01:59;7.50;99.90
37050;DHT22;22958;51.232;6.826;2023-04-25T01:04:27;7.50;99.90
37050;DHT22;22958;51.232;6.826;2023-04-25T01:06:53;7.50;99.90
37050;DHT22;22958;51.232;6.826;2023-04-25T01:09:19;7.40;99.90
37050;DHT22;22958;51.232;6.826;2023-04-25T01:11:45;7.40;99.90
37050;DHT22;22958;51.232;6.826;2023-04-25T01:14:11;7.30;99.90
37050;DHT22;22958;51.232;6.826;2023-04-25T01:16:36;7.30;99.90
37050;DHT22;22958;51.232;6.826;2023-04-25T01:19:07;7.30;99.90
37050;DHT22;22958;51.232;6.826;2023-04-25T01:21:34;7.30;99.90
37050;DHT22;22958;51.232;6.826;2023-04-25T01:24:00;7.30;99.90
37050;DHT22;22958;51.232;6.826;2023-04-25T01:26:26;7.30;99.90
37050;DHT22;22958;51.232;6.826;2023-04-25T01:28:52;7.30;99.90
37050;DHT22;22958;51.232;6.826;2023-04-25T01:31:18;7.30;99.90
37050;DHT22;22958;51.232;6.826;2023-04-25T01:33:44;7.40;99.90
37050;DHT22;22958;51.232;6.826;2023-04-25T01:36:10;7.40;99.90
37050;DHT22;22958;51.232;6.826;2023-04-25T01:38:36;7.30;99.90
37050;DHT22;22958;51.232;6.826;2023-04-25T01:41:02;7.30;99.90
37050;DHT22;22958;51.232;6.826;2023-04-25T01:43:27;7.30;99.90
37050;DHT22;22958;51.232;6.826;2023-04-25T01:45:53;7.30;99.90
37050;DHT22;22958;51.232;6.826;2023-04-25T01:48:18;7.20;99.90
37050;DHT22;22958;51.232;6.826;2023-04-25T01:50:44;7.20;99.90
37050;DHT22;22958;51.232;6.826;2023-04-25T01:53:13;7.20;99.90
37050;DHT22;22958;51.232;6.826;2023-04-25T01:55:38;7.20;99.90
37050;DHT22;22958;51.232;6.826;2023-04-25T01:58:04;7.20;99.90
37050;DHT22;22958;51.232;6.826;2023-04-25T02:00:34;7.20;99.90
37050;DHT22;22958;51.232;6.826;2023-04-25T02:03:00;7.20;99.90
37050;DHT22;22958;51.232;6.826;2023-04-25T02:05:26;7.10;99.90
37050;DHT22;22958;51.232;6.826;2023-04-25T02:07:51;7.10;99.90
37050;DHT22;22958;51.232;6.826;2023-04-25T02:10:17;7.10;99.90
37050;DHT22;22958;51.232;6.826;2023-04-25T02:12:42;7.10;99.90
37050;DHT22;22958;51.232;6.826;2023-04-25T02:15:08;7.10;99.90
37050;DHT22;22958;51.232;6.826;2023-04-25T02:17:33;7.10;99.90
37050;DHT22;22958;51.232;6.826;2023-04-25T02:19:59;7.10;99.90
37050;DHT22;22958;51.232;6.826;2023-04-25T02:22:25;7.10;99.90
37050;DHT22;22958;51.232;6.826;2023-04-25T02:24:54;7.10;99.90
37050;DHT22;22958;51.232;6.826;2023-04-25T02:27:20;7.10;99.90
37050;DHT22;22958;51.232;6.826;2023-04-25T02:29:45;7.10;99.90
37050;DHT22;22958;51.232;6.826;2023-04-25T02:32:11;7.10;99.90
37050;DHT22;22958;51.232;6.826;2023-04-25T02:34:36;7.10;99.90
37050;DHT22;22958;51.232;6.826;2023-04-25T02:37:02;7.10;99.90
37050;DHT22;22958;51.232;6.826;2023-04-25T02:39:28;7.10;99.90
37050;DHT22;22958;51.232;6.826;2023-04-25T02:41:53;7.10;99.90
37050;DHT22;22958;51.232;6.826;2023-04-25T02:44:19;7.10;99.90
37050;DHT22;22958;51.232;6.826;2023-04-25T02:46:45;7.10;99.90
37050;DHT22;22958;51.232;6.826;2023-04-25T02:49:10;7.00;99.90
37050;DHT22;22958;51.232;6.826;2023-04-25T02:51:36;7.00;99.90
37050;DHT22;22958;51.232;6.826;2023-04-25T02:54:01;7.00;99.90
37050;DHT22;22958;51.232;6.826;2023-04-25T02:56:27;7.00;99.90
37050;DHT22;22958;51.232;6.826;2023-04-25T02:58:53;7.00;99.90
37050;DHT22;22958;51.232;6.826;2023-04-25T03:01:18;7.00;99.90
37050;DHT22;22958;51.232;6.826;2023-04-25T03:03:44;7.00;99.90
37050;DHT22;22958;51.232;6.826;2023-04-25T03:06:09;7.00;99.90
37050;DHT22;22958;51.232;6.826;2023-04-25T03:08:35;6.90;99.90
37050;DHT22;22958;51.232;6.826;2023-04-25T03:11:00;6.90;99.90
37050;DHT22;22958;51.232;6.826;2023-04-25T03:13:26;6.90;99.90
37050;DHT22;22958;51.232;6.826;2023-04-25T03:15:52;6.90;99.90
37050;DHT22;22958;51.232;6.826;2023-04-25T03:18:18;6.90;99.90
37050;DHT22;22958;51.232;6.826;2023-04-25T03:20:43;6.90;99.90
37050;DHT22;22958;51.232;6.826;2023-04-25T03:23:09;6.80;99.90
37050;DHT22;22958;51.232;6.826;2023-04-25T03:25:34;6.80;99.90
37050;DHT22;22958;51.232;6.826;2023-04-25T03:28:00;6.80;99.90
37050;DHT22;22958;51.232;6.826;2023-04-25T03:30:25;6.80;99.90
37050;DHT22;22958;51.232;6.826;2023-04-25T03:32:51;6.80;99.90
37050;DHT22;22958;51.232;6.826;2023-04-25T03:35:16;6.80;99.90
37050;DHT22;22958;51.232;6.826;2023-04-25T03:37:42;6.70;99.90
37050;DHT22;22958;51.232;6.826;2023-04-25T03:40:11;6.80;99.90
37050;DHT22;22958;51.232;6.826;2023-04-25T03:42:36;6.70;99.90
37050;DHT22;22958;51.232;6.826;2023-04-25T03:45:02;6.70;99.90
37050;DHT22;22958;51.232;6.826;2023-04-25T03:47:28;6.70;99.90
37050;DHT22;22958;51.232;6.826;2023-04-25T03:49:53;6.60;99.90
37050;DHT22;22958;51.232;6.826;2023-04-25T03:52:19;6.60;99.90
37050;DHT22;22958;51.232;6.826;2023-04-25T03:54:44;6.60;99.90
37050;DHT22;22958;51.232;6.826;2023-04-25T03:57:10;6.60;99.90
37050;DHT22;22958;51.232;6.826;2023-04-25T03:59:35;6.60;99.90
37050;DHT22;22958;51.232;6.826;2023-04-25T04:02:01;6.50;99.90
37050;DHT22;22958;51.232;6.826;2023-04-25T04:04:26;6.50;99.90
37050;DHT22;22958;51.232;6.826;2023-04-25T04:06:52;6.50;99.90
37050;DHT22;22958;51.232;6.826;2023-04-25T04:09:18;6.50;99.90
37050;DHT22;22958;51.232;6.826;2023-04-25T04:11:44;6.50;99.90
37050;DHT22;22958;51.232;6.826;2023-04-25T04:14:10;6.40;99.90
37050;DHT22;22958;51.232;6.826;2023-04-25T04:16:35;6.40;99.90
37050;DHT22;22958;51.232;6.826;2023-04-25T04:19:01;6.40;99.90
37050;DHT22;22958;51.232;6.826;2023-04-25T04:21:27;6.40;99.90
37050;DHT22;22958;51.232;6.826;2023-04-25T04:23:53;6.40;99.90
37050;DHT22;22958;51.232;6.826;2023-04-25T04:26:20;6.40;99.90
37050;DHT22;22958;51.232;6.826;2023-04-25T04:28:49;6.40;99.90
37050;DHT22;22958;51.232;6.826;2023-04-25T04:31:16;6.40;99.90
37050;DHT22;22958;51.232;6.826;2023-04-25T04:33:42;6.40;99.90
37050;DHT22;22958;51.232;6.826;2023-04-25T04:36:07;6.40;99.90
37050;DHT22;22958;51.232;6.826;2023-04-25T04:38:33;6.40;99.90
37050;DHT22;22958;51.232;6.826;2023-04-25T04:40:59;6.40;99.90
37050;DHT22;22958;51.232;6.826;2023-04-25T04:43:24;6.40;99.90
37050;DHT22;22958;51.232;6.826;2023-04-25T04:45:50;6.40;99.90
37050;DHT22;22958;51.232;6.826;2023-04-25T04:48:16;6.40;99.90
37050;DHT22;22958;51.232;6.826;2023-04-25T04:50:43;6.40;99.90
37050;DHT22;22958;51.232;6.826;2023-04-25T04:53:10;6.40;99.90
37050;DHT22;22958;51.232;6.826;2023-04-25T04:55:35;6.30;99.90
37050;DHT22;22958;51.232;6.826;2023-04-25T04:58:01;6.40;99.90
37050;DHT22;22958;51.232;6.826;2023-04-25T05:00:26;6.40;99.90
37050;DHT22;22958;51.232;6.826;2023-04-25T05:02:52;6.40;99.90
37050;DHT22;22958;51.232;6.826;2023-04-25T05:05:18;6.40;99.90
37050;DHT22;22958;51.232;6.826;2023-04-25T05:07:43;6.40;99.90
37050;DHT22;22958;51.232;6.826;2023-04-25T05:10:09;6.40;99.90
37050;DHT22;22958;51.232;6.826;2023-04-25T05:12:35;6.40;99.90
37050;DHT22;22958;51.232;6.826;2023-04-25T05:15:00;6.50;99.90
37050;DHT22;22958;51.232;6.826;2023-04-25T05:17:26;6.50;99.90
37050;DHT22;22958;51.232;6.826;2023-04-25T05:19:51;6.50;99.90
37050;DHT22;22958;51.232;6.826;2023-04-25T05:22:17;6.50;99.90
37050;DHT22;22958;51.232;6.826;2023-04-25T05:24:42;6.50;99.90
37050;DHT22;22958;51.232;6.826;2023-04-25T05:27:08;6.50;99.90
37050;DHT22;22958;51.232;6.826;2023-04-25T05:29:33;6.50;99.90
37050;DHT22;22958;51.232;6.826;2023-04-25T05:31:59;6.50;99.90
37050;DHT22;22958;51.232;6.826;2023-04-25T05:34:24;6.50;99.90
37050;DHT22;22958;51.232;6.826;2023-04-25T05:36:50;6.50;99.90
37050;DHT22;22958;51.232;6.826;2023-04-25T05:39:16;6.50;99.90
37050;DHT22;22958;51.232;6.826;2023-04-25T05:41:42;6.50;99.90
37050;DHT22;22958;51.232;6.826;2023-04-25T05:44:08;6.60;99.90
37050;DHT22;22958;51.232;6.826;2023-04-25T05:46:33;6.70;99.90
37050;DHT22;22958;51.232;6.826;2023-04-25T05:48:59;6.70;99.90
37050;DHT22;22958;51.232;6.826;2023-04-25T05:51:24;6.90;99.90
37050;DHT22;22958;51.232;6.826;2023-04-25T05:53:51;6.90;99.90
37050;DHT22;22958;51.232;6.826;2023-04-25T05:56:16;7.00;99.90
37050;DHT22;22958;51.232;6.826;2023-04-25T05:58:42;7.00;99.90
37050;DHT22;22958;51.232;6.826;2023-04-25T06:01:07;7.00;99.90
37050;DHT22;22958;51.232;6.826;2023-04-25T06:03:34;7.00;99.90
37050;DHT22;22958;51.232;6.826;2023-04-25T06:05:59;7.10;99.90
37050;DHT22;22958;51.232;6.826;2023-04-25T06:08:25;7.20;99.90
37050;DHT22;22958;51.232;6.826;2023-04-25T06:10:50;7.30;99.90
37050;DHT22;22958;51.232;6.826;2023-04-25T06:13:16;7.30;99.90
37050;DHT22;22958;51.232;6.826;2023-04-25T06:15:41;7.20;99.90
37050;DHT22;22958;51.232;6.826;2023-04-25T06:18:07;7.30;99.90
37050;DHT22;22958;51.232;6.826;2023-04-25T06:20:33;7.40;99.90
37050;DHT22;22958;51.232;6.826;2023-04-25T06:22:58;7.30;99.90
37050;DHT22;22958;51.232;6.826;2023-04-25T06:25:24;7.40;99.90
37050;DHT22;22958;51.232;6.826;2023-04-25T06:27:49;7.50;99.90
37050;DHT22;22958;51.232;6.826;2023-04-25T06:30:15;7.50;99.90
37050;DHT22;22958;51.232;6.826;2023-04-25T06:32:43;7.50;99.90
37050;DHT22;22958;51.232;6.826;2023-04-25T06:35:09;7.40;99.90
37050;DHT22;22958;51.232;6.826;2023-04-25T06:37:35;7.30;99.90
37050;DHT22;22958;51.232;6.826;2023-04-25T06:40:00;7.40;99.90
37050;DHT22;22958;51.232;6.826;2023-04-25T06:42:26;7.40;99.90
37050;DHT22;22958;51.232;6.826;2023-04-25T06:44:51;7.30;99.90
37050;DHT22;22958;51.232;6.826;2023-04-25T06:47:17;7.40;99.90
37050;DHT22;22958;51.232;6.826;2023-04-25T06:49:42;7.50;99.90
37050;DHT22;22958;51.232;6.826;2023-04-25T06:52:08;7.60;99.90
37050;DHT22;22958;51.232;6.826;2023-04-25T06:54:33;7.60;99.90
37050;DHT22;22958;51.232;6.826;2023-04-25T06:56:59;7.70;99.90
37050;DHT22;22958;51.232;6.826;2023-04-25T06:59:26;7.80;99.90
37050;DHT22;22958;51.232;6.826;2023-04-25T07:01:51;7.80;99.90
37050;DHT22;22958;51.232;6.826;2023-04-25T07:04:17;7.90;99.90
37050;DHT22;22958;51.232;6.826;2023-04-25T07:06:42;8.00;99.90
37050;DHT22;22958;51.232;6.826;2023-04-25T07:09:09;8.00;99.90
37050;DHT22;22958;51.232;6.826;2023-04-25T07:11:35;7.80;99.90
37050;DHT22;22958;51.232;6.826;2023-04-25T07:14:01;7.70;99.90
37050;DHT22;22958;51.232;6.826;2023-04-25T07:16:27;7.80;99.90
37050;DHT22;22958;51.232;6.826;2023-04-25T07:18:52;7.90;99.90
37050;DHT22;22958;51.232;6.826;2023-04-25T07:21:18;8.00;99.90
37050;DHT22;22958;51.232;6.826;2023-04-25T07:23:43;8.10;99.90
37050;DHT22;22958;51.232;6.826;2023-04-25T07:26:09;8.30;99.90
37050;DHT22;22958;51.232;6.826;2023-04-25T07:28:35;8.40;99.90
37050;DHT22;22958;51.232;6.826;2023-04-25T07:31:00;8.40;99.90
37050;DHT22;22958;51.232;6.826;2023-04-25T07:33:26;8.70;99.90
37050;DHT22;22958;51.232;6.826;2023-04-25T07:35:52;8.80;99.90
37050;DHT22;22958;51.232;6.826;2023-04-25T07:38:18;9.00;99.90
37050;DHT22;22958;51.232;6.826;2023-04-25T07:40:43;8.70;99.90
37050;DHT22;22958;51.232;6.826;2023-04-25T07:43:09;8.60;99.90
37050;DHT22;22958;51.232;6.826;2023-04-25T07:45:34;8.70;99.90
37050;DHT22;22958;51.232;6.826;2023-04-25T07:48:00;9.00;99.90
37050;DHT22;22958;51.232;6.826;2023-04-25T07:50:25;8.80;99.90
37050;DHT22;22958;51.232;6.826;2023-04-25T07:52:51;8.90;99.90
37050;DHT22;22958;51.232;6.826;2023-04-25T07:55:16;8.60;99.90
37050;DHT22;22958;51.232;6.826;2023-04-25T07:57:42;8.60;99.90
37050;DHT22;22958;51.232;6.826;2023-04-25T08:00:08;8.50;99.90
37050;DHT22;22958;51.232;6.826;2023-04-25T08:02:37;8.40;99.90
37050;DHT22;22958;51.232;6.826;2023-04-25T08:05:02;8.60;99.90
37050;DHT22;22958;51.232;6.826;2023-04-25T08:07:28;8.80;99.90
37050;DHT22;22958;51.232;6.826;2023-04-25T08:09:54;8.80;99.90
37050;DHT22;22958;51.232;6.826;2023-04-25T08:12:20;9.00;99.90
37050;DHT22;22958;51.232;6.826;2023-04-25T08:14:45;8.90;99.90
37050;DHT22;22958;51.232;6.826;2023-04-25T08:17:11;8.90;99.90
37050;DHT22;22958;51.232;6.826;2023-04-25T08:19:36;9.30;99.90
37050;DHT22;22958;51.232;6.826;2023-04-25T08:22:02;9.90;99.90
37050;DHT22;22958;51.232;6.826;2023-04-25T08:24:28;9.60;99.90
37050;DHT22;22958;51.232;6.826;2023-04-25T08:26:53;9.10;99.90
37050;DHT22;22958;51.232;6.826;2023-04-25T08:29:19;8.80;99.90
37050;DHT22;22958;51.232;6.826;2023-04-25T08:31:45;8.70;99.90
37050;DHT22;22958;51.232;6.826;2023-04-25T08:34:11;9.00;99.90
37050;DHT22;22958;51.232;6.826;2023-04-25T08:36:37;9.00;99.90
37050;DHT22;22958;51.232;6.826;2023-04-25T08:39:02;9.30;99.90
37050;DHT22;22958;51.232;6.826;2023-04-25T08:41:28;9.30;99.90
37050;DHT22;22958;51.232;6.826;2023-04-25T08:43:56;9.40;99.90
37050;DHT22;22958;51.232;6.826;2023-04-25T08:46:23;9.70;99.90
37050;DHT22;22958;51.232;6.826;2023-04-25T08:48:48;9.60;99.90
37050;DHT22;22958;51.232;6.826;2023-04-25T08:51:24;9.30;99.90
37050;DHT22;22958;51.232;6.826;2023-04-25T08:53:51;9.50;99.90
37050;DHT22;22958;51.232;6.826;2023-04-25T08:56:18;9.40;99.90
37050;DHT22;22958;51.232;6.826;2023-04-25T08:58:48;9.70;99.90
37050;DHT22;22958;51.232;6.826;2023-04-25T09:01:13;9.40;99.90
37050;DHT22;22958;51.232;6.826;2023-04-25T09:03:39;9.40;99.90
37050;DHT22;22958;51.232;6.826;2023-04-25T09:06:05;10.00;99.90
37050;DHT22;22958;51.232;6.826;2023-04-25T09:08:30;9.80;99.90
37050;DHT22;22958;51.232;6.826;2023-04-25T09:10:56;9.50;99.90
37050;DHT22;22958;51.232;6.826;2023-04-25T09:13:26;9.50;99.90
37050;DHT22;22958;51.232;6.826;2023-04-25T09:15:56;9.70;99.90
37050;DHT22;22958;51.232;6.826;2023-04-25T09:18:26;9.70;99.90
37050;DHT22;22958;51.232;6.826;2023-04-25T09:21:06;9.60;99.90
37050;DHT22;22958;51.232;6.826;2023-04-25T09:23:45;9.90;99.90
37050;DHT22;22958;51.232;6.826;2023-04-25T09:26:15;10.10;99.90
37050;DHT22;22958;51.232;6.826;2023-04-25T09:28:42;10.00;99.90
37050;DHT22;22958;51.232;6.826;2023-04-25T09:31:10;9.80;99.90
37050;DHT22;22958;51.232;6.826;2023-04-25T09:33:37;9.40;99.90
37050;DHT22;22958;51.232;6.826;2023-04-25T09:36:04;9.40;99.90
37050;DHT22;22958;51.232;6.826;2023-04-25T09:38:32;9.20;99.90
37050;DHT22;22958;51.232;6.826;2023-04-25T09:40:58;9.20;99.90
37050;DHT22;22958;51.232;6.826;2023-04-25T09:43:24;9.50;99.90
37050;DHT22;22958;51.232;6.826;2023-04-25T09:45:53;9.70;99.90
37050;DHT22;22958;51.232;6.826;2023-04-25T09:48:22;10.10;99.90
37050;DHT22;22958;51.232;6.826;2023-04-25T09:53:31;10.00;99.90
37050;DHT22;22958;51.232;6.826;2023-04-25T09:55:59;10.00;99.90
37050;DHT22;22958;51.232;6.826;2023-04-25T09:58:25;10.30;99.90
37050;DHT22;22958;51.232;6.826;2023-04-25T10:01:05;10.50;99.90
37050;DHT22;22958;51.232;6.826;2023-04-25T10:03:32;11.00;99.90
37050;DHT22;22958;51.232;6.826;2023-04-25T10:06:04;10.80;99.90
37050;DHT22;22958;51.232;6.826;2023-04-25T10:08:35;10.20;99.90
37050;DHT22;22958;51.232;6.826;2023-04-25T10:11:05;10.10;99.90
37050;DHT22;22958;51.232;6.826;2023-04-25T10:13:33;10.10;99.90
37050;DHT22;22958;51.232;6.826;2023-04-25T10:16:00;10.20;99.90
37050;DHT22;22958;51.232;6.826;2023-04-25T10:18:27;10.20;99.90
37050;DHT22;22958;51.232;6.826;2023-04-25T10:20:58;10.10;99.90
37050;DHT22;22958;51.232;6.826;2023-04-25T10:23:25;10.10;99.90
37050;DHT22;22958;51.232;6.826;2023-04-25T10:25:52;10.30;99.90
37050;DHT22;22958;51.232;6.826;2023-04-25T10:28:18;10.00;99.90
37050;DHT22;22958;51.232;6.826;2023-04-25T10:31:03;9.90;99.90
37050;DHT22;22958;51.232;6.826;2023-04-25T10:33:38;9.80;99.90
37050;DHT22;22958;51.232;6.826;2023-04-25T10:36:17;9.80;99.90
37050;DHT22;22958;51.232;6.826;2023-04-25T10:38:43;9.90;99.90
37050;DHT22;22958;51.232;6.826;2023-04-25T10:41:10;9.70;99.90
37050;DHT22;22958;51.232;6.826;2023-04-25T10:43:40;9.80;99.90
37050;DHT22;22958;51.232;6.826;2023-04-25T10:46:25;10.00;99.90
37050;DHT22;22958;51.232;6.826;2023-04-25T10:48:51;9.80;99.90
37050;DHT22;22958;51.232;6.826;2023-04-25T10:51:23;10.00;99.90
37050;DHT22;22958;51.232;6.826;2023-04-25T10:56:20;10.30;99.20
37050;DHT22;22958;51.232;6.826;2023-04-25T10:58:49;10.80;98.00
37050;DHT22;22958;51.232;6.826;2023-04-25T11:01:20;10.70;97.50
37050;DHT22;22958;51.232;6.826;2023-04-25T11:03:45;10.90;97.00
37050;DHT22;22958;51.232;6.826;2023-04-25T11:06:16;10.80;96.80
37050;DHT22;22958;51.232;6.826;2023-04-25T11:08:51;10.90;97.10
37050;DHT22;22958;51.232;6.826;2023-04-25T11:11:17;11.00;97.00
37050;DHT22;22958;51.232;6.826;2023-04-25T11:13:44;10.80;96.90
37050;DHT22;22958;51.232;6.826;2023-04-25T11:16:12;10.70;97.30
37050;DHT22;22958;51.232;6.826;2023-04-25T11:18:40;10.60;97.40
37050;DHT22;22958;51.232;6.826;2023-04-25T11:21:06;10.90;97.00
37050;DHT22;22958;51.232;6.826;2023-04-25T11:23:31;11.40;95.70
37050;DHT22;22958;51.232;6.826;2023-04-25T11:25:57;11.30;96.40
37050;DHT22;22958;51.232;6.826;2023-04-25T11:28:23;11.90;96.70
37050;DHT22;22958;51.232;6.826;2023-04-25T11:30:49;13.30;95.60
37050;DHT22;22958;51.232;6.826;2023-04-25T11:33:17;13.40;92.30
37050;DHT22;22958;51.232;6.826;2023-04-25T11:35:43;13.40;92.80
37050;DHT22;22958;51.232;6.826;2023-04-25T11:38:08;13.60;92.40
37050;DHT22;22958;51.232;6.826;2023-04-25T11:40:35;13.90;91.20
37050;DHT22;22958;51.232;6.826;2023-04-25T11:43:01;12.60;92.30
37050;DHT22;22958;51.232;6.826;2023-04-25T11:45:27;12.90;93.80
37050;DHT22;22958;51.232;6.826;2023-04-25T11:47:54;12.40;93.80
37050;DHT22;22958;51.232;6.826;2023-04-25T11:50:20;13.20;93.00
37050;DHT22;22958;51.232;6.826;2023-04-25T11:52:47;14.30;92.30
37050;DHT22;22958;51.232;6.826;2023-04-25T11:55:18;13.40;92.80
37050;DHT22;22958;51.232;6.826;2023-04-25T11:57:46;14.20;93.40
37050;DHT22;22958;51.232;6.826;2023-04-25T12:00:14;14.10;91.60
37050;DHT22;22958;51.232;6.826;2023-04-25T12:02:44;13.50;91.90
37050;DHT22;22958;51.232;6.826;2023-04-25T12:05:11;12.70;92.90
37050;DHT22;22958;51.232;6.826;2023-04-25T12:07:37;12.60;93.20
37050;DHT22;22958;51.232;6.826;2023-04-25T12:10:07;11.60;94.10
37050;DHT22;22958;51.232;6.826;2023-04-25T12:12:35;11.70;96.90
37050;DHT22;22958;51.232;6.826;2023-04-25T12:15:15;12.00;97.90
37050;DHT22;22958;51.232;6.826;2023-04-25T12:17:51;11.00;99.50
37050;DHT22;22958;51.232;6.826;2023-04-25T12:20:18;10.90;99.90
37050;DHT22;22958;51.232;6.826;2023-04-25T12:22:47;10.70;99.90
37050;DHT22;22958;51.232;6.826;2023-04-25T12:25:33;10.70;99.90
37050;DHT22;22958;51.232;6.826;2023-04-25T12:31:04;10.60;99.90
37050;DHT22;22958;51.232;6.826;2023-04-25T12:33:34;10.10;99.90
37050;DHT22;22958;51.232;6.826;2023-04-25T12:36:01;9.60;99.90
37050;DHT22;22958;51.232;6.826;2023-04-25T12:38:37;9.50;99.90
37050;DHT22;22958;51.232;6.826;2023-04-25T12:41:03;9.40;99.90
37050;DHT22;22958;51.232;6.826;2023-04-25T12:43:28;10.20;99.90
37050;DHT22;22958;51.232;6.826;2023-04-25T12:45:55;11.90;99.90
37050;DHT22;22958;51.232;6.826;2023-04-25T12:48:22;14.50;99.90
37050;DHT22;22958;51.232;6.826;2023-04-25T12:50:48;17.10;99.90
37050;DHT22;22958;51.232;6.826;2023-04-25T12:53:15;16.20;96.50
37050;DHT22;22958;51.232;6.826;2023-04-25T12:55:40;14.80;97.70
37050;DHT22;22958;51.232;6.826;2023-04-25T12:58:06;16.30;97.30
37050;DHT22;22958;51.232;6.826;2023-04-25T13:00:32;16.60;92.50
37050;DHT22;22958;51.232;6.826;2023-04-25T13:02:58;17.40;94.20
37050;DHT22;22958;51.232;6.826;2023-04-25T13:05:24;17.10;93.40
37050;DHT22;22958;51.232;6.826;2023-04-25T13:07:50;16.20;93.60
37050;DHT22;22958;51.232;6.826;2023-04-25T13:10:16;14.10;94.10
37050;DHT22;22958;51.232;6.826;2023-04-25T13:12:43;12.30;96.00
37050;DHT22;22958;51.232;6.826;2023-04-25T13:15:09;13.00;96.10
37050;DHT22;22958;51.232;6.826;2023-04-25T13:17:37;12.60;96.70
37050;DHT22;22958;51.232;6.826;2023-04-25T13:20:04;11.70;97.60
37050;DHT22;22958;51.232;6.826;2023-04-25T13:22:31;11.30;99.10
37050;DHT22;22958;51.232;6.826;2023-04-25T13:24:57;10.70;99.90
37050;DHT22;22958;51.232;6.826;2023-04-25T13:27:22;10.50;99.90
37050;DHT22;22958;51.232;6.826;2023-04-25T13:29:48;10.50;99.90
37050;DHT22;22958;51.232;6.826;2023-04-25T13:32:13;10.00;99.90
37050;DHT22;22958;51.232;6.826;2023-04-25T13:34:39;10.30;99.90
37050;DHT22;22958;51.232;6.826;2023-04-25T13:37:04;10.50;99.90
37050;DHT22;22958;51.232;6.826;2023-04-25T13:39:30;10.50;99.90
37050;DHT22;22958;51.232;6.826;2023-04-25T13:41:55;11.10;99.60
37050;DHT22;22958;51.232;6.826;2023-04-25T13:44:21;11.70;98.80
37050;DHT22;22958;51.232;6.826;2023-04-25T13:46:47;11.70;99.70
37050;DHT22;22958;51.232;6.826;2023-04-25T13:49:12;12.20;98.40
37050;DHT22;22958;51.232;6.826;2023-04-25T13:51:38;12.30;97.60
37050;DHT22;22958;51.232;6.826;2023-04-25T13:54:03;11.30;97.20
37050;DHT22;22958;51.232;6.826;2023-04-25T13:56:29;11.30;96.70
37050;DHT22;22958;51.232;6.826;2023-04-25T13:58:55;10.80;97.10
37050;DHT22;22958;51.232;6.826;2023-04-25T14:01:22;10.90;96.90
37050;DHT22;22958;51.232;6.826;2023-04-25T14:03:47;10.90;96.30
37050;DHT22;22958;51.232;6.826;2023-04-25T14:06:13;11.10;96.30
37050;DHT22;22958;51.232;6.826;2023-04-25T14:08:39;11.70;95.80
37050;DHT22;22958;51.232;6.826;2023-04-25T14:11:04;13.30;94.40
37050;DHT22;22958;51.232;6.826;2023-04-25T14:13:30;15.40;91.30
37050;DHT22;22958;51.232;6.826;2023-04-25T14:15:56;12.50;92.70
37050;DHT22;22958;51.232;6.826;2023-04-25T14:18:22;12.00;97.10
37050;DHT22;22958;51.232;6.826;2023-04-25T14:20:48;13.00;97.50
37050;DHT22;22958;51.232;6.826;2023-04-25T14:23:13;15.00;95.20
37050;DHT22;22958;51.232;6.826;2023-04-25T14:25:39;14.70;94.00
37050;DHT22;22958;51.232;6.826;2023-04-25T14:28:05;15.20;94.40
37050;DHT22;22958;51.232;6.826;2023-04-25T14:30:31;15.10;94.20
37050;DHT22;22958;51.232;6.826;2023-04-25T14:32:57;14.10;95.10
37050;DHT22;22958;51.232;6.826;2023-04-25T14:35:22;12.80;96.10
37050;DHT22;22958;51.232;6.826;2023-04-25T14:37:48;12.30;97.10
37050;DHT22;22958;51.232;6.826;2023-04-25T14:40:13;11.80;97.60
37050;DHT22;22958;51.232;6.826;2023-04-25T14:42:40;11.00;97.60
37050;DHT22;22958;51.232;6.826;2023-04-25T14:45:07;10.90;98.40
37050;DHT22;22958;51.232;6.826;2023-04-25T14:47:36;10.90;98.50
37050;DHT22;22958;51.232;6.826;2023-04-25T14:50:02;11.20;98.70
37050;DHT22;22958;51.232;6.826;2023-04-25T14:52:28;11.30;97.90
37050;DHT22;22958;51.232;6.826;2023-04-25T14:54:53;12.90;96.80
37050;DHT22;22958;51.232;6.826;2023-04-25T14:57:19;14.50;94.30
37050;DHT22;22958;51.232;6.826;2023-04-25T14:59:45;15.60;92.20
37050;DHT22;22958;51.232;6.826;2023-04-25T15:02:11;15.40;91.20
37050;DHT22;22958;51.232;6.826;2023-04-25T15:04:36;14.20;93.10
37050;DHT22;22958;51.232;6.826;2023-04-25T15:07:02;13.30;92.70
37050;DHT22;22958;51.232;6.826;2023-04-25T15:09:28;12.50;93.60
37050;DHT22;22958;51.232;6.826;2023-04-25T15:11:53;11.70;93.90
37050;DHT22;22958;51.232;6.826;2023-04-25T15:14:19;11.60;94.90
37050;DHT22;22958;51.232;6.826;2023-04-25T15:16:44;11.60;95.60
37050;DHT22;22958;51.232;6.826;2023-04-25T15:19:10;11.40;93.80
37050;DHT22;22958;51.232;6.826;2023-04-25T15:21:36;11.40;94.10
37050;DHT22;22958;51.232;6.826;2023-04-25T15:24:02;11.30;92.90
37050;DHT22;22958;51.232;6.826;2023-04-25T15:26:27;11.10;93.90
37050;DHT22;22958;51.232;6.826;2023-04-25T15:28:53;10.80;94.00
37050;DHT22;22958;51.232;6.826;2023-04-25T15:31:19;10.80;94.30
37050;DHT22;22958;51.232;6.826;2023-04-25T15:33:44;10.80;95.00
37050;DHT22;22958;51.232;6.826;2023-04-25T15:36:10;10.90;96.00
37050;DHT22;22958;51.232;6.826;2023-04-25T15:38:36;10.90;97.20
37050;DHT22;22958;51.232;6.826;2023-04-25T15:41:02;11.20;97.40
37050;DHT22;22958;51.232;6.826;2023-04-25T15:43:28;11.30;97.10